sensor_id;sensor_type;location;lat;lon;timestamp;temperature;humidity
70550;DHT22;58101;48.658;2.328;2022-07-19T00:01:17;25.80;40.30
70550;DHT22;58101;48.658;2.328;2022-07-19T00:03:43;25.70;40.50
70550;DHT22;58101;48.658;2.328;2022-07-19T00:09:31;25.60;40.80
70550;DHT22;58101;48.658;2.328;2022-07-19T00:11:56;25.60;41.30
70550;DHT22;58101;48.658;2.328;2022-07-19T00:14:22;25.50;41.50
70550;DHT22;58101;48.658;2.328;2022-07-19T00:16:51;25.50;42.70
70550;DHT22;58101;48.658;2.328;2022-07-19T00:19:26;25.40;41.70
70550;DHT22;58101;48.658;2.328;2022-07-19T00:25:14;25.40;42.70
70550;DHT22;58101;48.658;2.328;2022-07-19T00:27:40;25.30;42.80
70550;DHT22;58101;48.658;2.328;2022-07-19T00:30:07;25.20;43.00
70550;DHT22;58101;48.658;2.328;2022-07-19T00:32:58;25.20;43.40
70550;DHT22;58101;48.658;2.328;2022-07-19T00:38:05;25.10;43.60
70550;DHT22;58101;48.658;2.328;2022-07-19T00:40:31;25.00;43.70
70550;DHT22;58101;48.658;2.328;2022-07-19T00:42:57;25.00;43.80
70550;DHT22;58101;48.658;2.328;2022-07-19T00:45:22;25.00;44.00
70550;DHT22;58101;48.658;2.328;2022-07-19T00:47:48;24.90;44.10
70550;DHT22;58101;48.658;2.328;2022-07-19T00:50:14;24.90;44.40
70550;DHT22;58101;48.658;2.328;2022-07-19T00:52:40;24.80;44.80
70550;DHT22;58101;48.658;2.328;2022-07-19T00:55:09;24.80;44.60
70550;DHT22;58101;48.658;2.328;2022-07-19T00:57:36;24.70;44.40
70550;DHT22;58101;48.658;2.328;2022-07-19T01:00:07;24.70;44.60
70550;DHT22;58101;48.658;2.328;2022-07-19T01:02:51;24.70;44.80
70550;DHT22;58101;48.658;2.328;2022-07-19T01:05:17;24.60;44.90
70550;DHT22;58101;48.658;2.328;2022-07-19T01:10:52;24.60;45.90
70550;DHT22;58101;48.658;2.328;2022-07-19T01:13:18;24.50;45.90
70550;DHT22;58101;48.658;2.328;2022-07-19T01:15:44;24.40;46.20
70550;DHT22;58101;48.658;2.328;2022-07-19T01:18:10;24.40;46.20
70550;DHT22;58101;48.658;2.328;2022-07-19T01:20:36;24.40;46.20
70550;DHT22;58101;48.658;2.328;2022-07-19T01:23:02;24.30;46.20
70550;DHT22;58101;48.658;2.328;2022-07-19T01:25:31;24.30;46.40
70550;DHT22;58101;48.658;2.328;2022-07-19T01:27:57;24.30;46.90
70550;DHT22;58101;48.658;2.328;2022-07-19T01:30:24;24.20;46.60
70550;DHT22;58101;48.658;2.328;2022-07-19T01:32:57;24.20;46.70
70550;DHT22;58101;48.658;2.328;2022-07-19T01:35:24;24.10;46.80
70550;DHT22;58101;48.658;2.328;2022-07-19T01:37:51;24.10;47.20
70550;DHT22;58101;48.658;2.328;2022-07-19T01:40:17;24.00;47.20
70550;DHT22;58101;48.658;2.328;2022-07-19T01:42:44;24.10;47.30
70550;DHT22;58101;48.658;2.328;2022-07-19T01:45:32;24.00;47.40
70550;DHT22;58101;48.658;2.328;2022-07-19T01:48:07;24.00;47.50
70550;DHT22;58101;48.658;2.328;2022-07-19T01:50:32;23.90;47.40
70550;DHT22;58101;48.658;2.328;2022-07-19T01:52:58;23.90;47.50
70550;DHT22;58101;48.658;2.328;2022-07-19T01:55:24;23.80;47.50
70550;DHT22;58101;48.658;2.328;2022-07-19T01:57:50;23.80;47.80
70550;DHT22;58101;48.658;2.328;2022-07-19T02:00:15;23.80;48.30
70550;DHT22;58101;48.658;2.328;2022-07-19T02:02:41;23.80;48.60
70550;DHT22;58101;48.658;2.328;2022-07-19T02:05:26;23.80;49.70
70550;DHT22;58101;48.658;2.328;2022-07-19T02:07:52;23.70;48.80
70550;DHT22;58101;48.658;2.328;2022-07-19T02:10:17;23.70;49.00
70550;DHT22;58101;48.658;2.328;2022-07-19T02:19:09;23.60;49.50
70550;DHT22;58101;48.658;2.328;2022-07-19T02:21:47;23.50;49.50
70550;DHT22;58101;48.658;2.328;2022-07-19T02:24:13;23.50;49.50
70550;DHT22;58101;48.658;2.328;2022-07-19T02:26:39;23.50;49.60
70550;DHT22;58101;48.658;2.328;2022-07-19T02:29:06;23.40;49.40
70550;DHT22;58101;48.658;2.328;2022-07-19T02:31:32;23.40;49.90
70550;DHT22;58101;48.658;2.328;2022-07-19T02:34:07;23.40;49.80
70550;DHT22;58101;48.658;2.328;2022-07-19T02:36:32;23.40;50.90
70550;DHT22;58101;48.658;2.328;2022-07-19T02:39:01;23.30;49.80
70550;DHT22;58101;48.658;2.328;2022-07-19T02:41:27;23.30;49.90
70550;DHT22;58101;48.658;2.328;2022-07-19T02:43:52;23.30;50.00
70550;DHT22;58101;48.658;2.328;2022-07-19T02:46:18;23.30;50.20
70550;DHT22;58101;48.658;2.328;2022-07-19T02:48:44;23.20;50.30
70550;DHT22;58101;48.658;2.328;2022-07-19T02:51:11;23.20;50.20
70550;DHT22;58101;48.658;2.328;2022-07-19T02:57:04;23.20;50.40
70550;DHT22;58101;48.658;2.328;2022-07-19T02:59:29;23.10;50.50
70550;DHT22;58101;48.658;2.328;2022-07-19T03:02:13;23.10;50.40
70550;DHT22;58101;48.658;2.328;2022-07-19T03:07:33;23.10;50.00
70550;DHT22;58101;48.658;2.328;2022-07-19T03:13:21;23.10;50.40
70550;DHT22;58101;48.658;2.328;2022-07-19T03:31:03;22.90;51.60
70550;DHT22;58101;48.658;2.328;2022-07-19T03:33:29;22.70;52.90
70550;DHT22;58101;48.658;2.328;2022-07-19T03:35:55;22.70;52.20
70550;DHT22;58101;48.658;2.328;2022-07-19T03:38:20;22.60;52.50
70550;DHT22;58101;48.658;2.328;2022-07-19T03:40:46;22.60;52.80
70550;DHT22;58101;48.658;2.328;2022-07-19T03:43:14;22.60;53.10
70550;DHT22;58101;48.658;2.328;2022-07-19T03:49:02;22.50;53.30
70550;DHT22;58101;48.658;2.328;2022-07-19T03:51:27;22.40;53.50
70550;DHT22;58101;48.658;2.328;2022-07-19T03:53:56;22.40;53.60
70550;DHT22;58101;48.658;2.328;2022-07-19T03:56:22;22.40;54.00
70550;DHT22;58101;48.658;2.328;2022-07-19T03:58:48;22.30;54.20
70550;DHT22;58101;48.658;2.328;2022-07-19T04:01:15;22.30;54.50
70550;DHT22;58101;48.658;2.328;2022-07-19T04:03:41;22.30;54.70
70550;DHT22;58101;48.658;2.328;2022-07-19T04:06:09;22.30;55.00
70550;DHT22;58101;48.658;2.328;2022-07-19T04:08:38;22.30;55.20
70550;DHT22;58101;48.658;2.328;2022-07-19T04:11:04;22.20;55.30
70550;DHT22;58101;48.658;2.328;2022-07-19T04:16:33;22.20;55.90
70550;DHT22;58101;48.658;2.328;2022-07-19T04:18:59;22.20;56.00
70550;DHT22;58101;48.658;2.328;2022-07-19T04:21:34;22.20;56.10
70550;DHT22;58101;48.658;2.328;2022-07-19T04:23:59;22.10;56.00
70550;DHT22;58101;48.658;2.328;2022-07-19T04:26:25;22.10;56.10
70550;DHT22;58101;48.658;2.328;2022-07-19T04:28:51;22.10;56.20
70550;DHT22;58101;48.658;2.328;2022-07-19T04:31:16;22.10;57.30
70550;DHT22;58101;48.658;2.328;2022-07-19T04:33:42;22.10;56.30
70550;DHT22;58101;48.658;2.328;2022-07-19T04:36:26;22.10;56.50
70550;DHT22;58101;48.658;2.328;2022-07-19T04:39:12;22.10;56.70
70550;DHT22;58101;48.658;2.328;2022-07-19T04:41:44;22.10;56.60
70550;DHT22;58101;48.658;2.328;2022-07-19T04:44:09;22.10;56.90
70550;DHT22;58101;48.658;2.328;2022-07-19T04:46:47;22.10;57.20
70550;DHT22;58101;48.658;2.328;2022-07-19T04:49:35;22.10;57.40
70550;DHT22;58101;48.658;2.328;2022-07-19T04:52:01;22.10;58.20
70550;DHT22;58101;48.658;2.328;2022-07-19T04:54:35;22.10;58.10
70550;DHT22;58101;48.658;2.328;2022-07-19T04:57:01;22.10;58.00
70550;DHT22;58101;48.658;2.328;2022-07-19T04:59:45;22.10;58.40
70550;DHT22;58101;48.658;2.328;2022-07-19T05:02:11;22.20;58.30
70550;DHT22;58101;48.658;2.328;2022-07-19T05:04:36;22.20;58.30
70550;DHT22;58101;48.658;2.328;2022-07-19T05:07:11;22.20;58.20
70550;DHT22;58101;48.658;2.328;2022-07-19T05:09:43;22.20;57.90
70550;DHT22;58101;48.658;2.328;2022-07-19T05:12:32;22.20;58.20
70550;DHT22;58101;48.658;2.328;2022-07-19T05:15:20;22.30;58.60
70550;DHT22;58101;48.658;2.328;2022-07-19T05:17:45;22.30;58.00
70550;DHT22;58101;48.658;2.328;2022-07-19T05:20:11;22.40;57.80
70550;DHT22;58101;48.658;2.328;2022-07-19T05:26:30;22.50;58.00
70550;DHT22;58101;48.658;2.328;2022-07-19T05:29:06;22.60;58.50
70550;DHT22;58101;48.658;2.328;2022-07-19T05:31:32;22.60;58.20
70550;DHT22;58101;48.658;2.328;2022-07-19T05:33:57;22.70;57.80
70550;DHT22;58101;48.658;2.328;2022-07-19T05:36:23;22.80;58.20
70550;DHT22;58101;48.658;2.328;2022-07-19T05:38:52;22.80;57.60
70550;DHT22;58101;48.658;2.328;2022-07-19T05:41:28;22.90;57.30
70550;DHT22;58101;48.658;2.328;2022-07-19T05:43:54;22.90;56.60
70550;DHT22;58101;48.658;2.328;2022-07-19T05:46:20;23.00;56.50
70550;DHT22;58101;48.658;2.328;2022-07-19T05:48:46;23.10;55.90
70550;DHT22;58101;48.658;2.328;2022-07-19T05:51:27;23.20;55.50
70550;DHT22;58101;48.658;2.328;2022-07-19T05:53:52;23.30;55.00
70550;DHT22;58101;48.658;2.328;2022-07-19T05:56:18;23.40;55.30
70550;DHT22;58101;48.658;2.328;2022-07-19T05:58:43;23.50;54.50
70550;DHT22;58101;48.658;2.328;2022-07-19T06:01:09;23.60;53.90
70550;DHT22;58101;48.658;2.328;2022-07-19T06:07:14;23.80;52.10
70550;DHT22;58101;48.658;2.328;2022-07-19T06:09:40;23.90;51.50
70550;DHT22;58101;48.658;2.328;2022-07-19T06:12:05;24.10;50.80
70550;DHT22;58101;48.658;2.328;2022-07-19T06:14:31;24.10;50.50
70550;DHT22;58101;48.658;2.328;2022-07-19T06:16:57;24.20;50.00
70550;DHT22;58101;48.658;2.328;2022-07-19T06:19:23;24.30;49.70
70550;DHT22;58101;48.658;2.328;2022-07-19T06:21:52;24.40;49.20
70550;DHT22;58101;48.658;2.328;2022-07-19T06:24:21;24.50;48.80
70550;DHT22;58101;48.658;2.328;2022-07-19T06:26:46;24.60;48.60
70550;DHT22;58101;48.658;2.328;2022-07-19T06:29:12;24.70;48.50
70550;DHT22;58101;48.658;2.328;2022-07-19T06:31:38;24.80;48.40
70550;DHT22;58101;48.658;2.328;2022-07-19T06:34:03;24.90;48.30
70550;DHT22;58101;48.658;2.328;2022-07-19T06:36:29;25.10;47.90
70550;DHT22;58101;48.658;2.328;2022-07-19T06:38:54;25.20;47.50
70550;DHT22;58101;48.658;2.328;2022-07-19T06:41:20;25.30;47.20
70550;DHT22;58101;48.658;2.328;2022-07-19T06:43:46;25.40;46.10
70550;DHT22;58101;48.658;2.328;2022-07-19T06:46:11;25.40;44.40
70550;DHT22;58101;48.658;2.328;2022-07-19T06:48:37;25.60;44.20
70550;DHT22;58101;48.658;2.328;2022-07-19T06:51:40;25.70;43.70
70550;DHT22;58101;48.658;2.328;2022-07-19T06:54:05;25.80;43.10
70550;DHT22;58101;48.658;2.328;2022-07-19T06:56:31;26.00;42.90
70550;DHT22;58101;48.658;2.328;2022-07-19T06:58:57;26.10;43.30
70550;DHT22;58101;48.658;2.328;2022-07-19T07:01:57;26.20;45.10
70550;DHT22;58101;48.658;2.328;2022-07-19T07:04:47;26.40;45.20
70550;DHT22;58101;48.658;2.328;2022-07-19T07:07:40;26.50;45.20
70550;DHT22;58101;48.658;2.328;2022-07-19T07:10:08;26.60;44.70
70550;DHT22;58101;48.658;2.328;2022-07-19T07:12:43;26.70;44.60
70550;DHT22;58101;48.658;2.328;2022-07-19T07:15:09;26.80;42.70
70550;DHT22;58101;48.658;2.328;2022-07-19T07:17:49;26.90;39.70
70550;DHT22;58101;48.658;2.328;2022-07-19T07:20:15;27.00;39.10
70550;DHT22;58101;48.658;2.328;2022-07-19T07:22:47;27.10;38.70
70550;DHT22;58101;48.658;2.328;2022-07-19T07:25:13;27.30;37.80
70550;DHT22;58101;48.658;2.328;2022-07-19T07:27:38;27.40;37.80
70550;DHT22;58101;48.658;2.328;2022-07-19T07:30:05;27.50;37.00
70550;DHT22;58101;48.658;2.328;2022-07-19T07:32:31;27.70;36.90
70550;DHT22;58101;48.658;2.328;2022-07-19T07:34:56;27.80;36.60
70550;DHT22;58101;48.658;2.328;2022-07-19T07:37:22;27.90;36.20
70550;DHT22;58101;48.658;2.328;2022-07-19T07:39:47;28.00;35.90
70550;DHT22;58101;48.658;2.328;2022-07-19T07:42:13;28.10;35.70
70550;DHT22;58101;48.658;2.328;2022-07-19T07:44:40;28.20;35.30
70550;DHT22;58101;48.658;2.328;2022-07-19T07:47:06;28.40;35.20
70550;DHT22;58101;48.658;2.328;2022-07-19T07:49:42;28.50;35.10
70550;DHT22;58101;48.658;2.328;2022-07-19T07:52:08;28.70;34.80
70550;DHT22;58101;48.658;2.328;2022-07-19T07:54:37;28.80;34.70
70550;DHT22;58101;48.658;2.328;2022-07-19T07:57:03;29.00;34.10
70550;DHT22;58101;48.658;2.328;2022-07-19T07:59:48;29.10;33.80
70550;DHT22;58101;48.658;2.328;2022-07-19T08:04:59;29.50;32.70
70550;DHT22;58101;48.658;2.328;2022-07-19T08:07:27;29.60;32.00
70550;DHT22;58101;48.658;2.328;2022-07-19T08:09:56;29.70;32.00
70550;DHT22;58101;48.658;2.328;2022-07-19T08:12:24;29.80;31.70
70550;DHT22;58101;48.658;2.328;2022-07-19T08:15:00;30.00;30.90
70550;DHT22;58101;48.658;2.328;2022-07-19T08:17:25;30.10;30.90
70550;DHT22;58101;48.658;2.328;2022-07-19T08:19:51;30.30;30.60
70550;DHT22;58101;48.658;2.328;2022-07-19T08:22:18;30.40;30.00
70550;DHT22;58101;48.658;2.328;2022-07-19T08:24:46;30.50;29.70
70550;DHT22;58101;48.658;2.328;2022-07-19T08:27:12;30.70;30.00
70550;DHT22;58101;48.658;2.328;2022-07-19T08:29:38;30.80;30.00
70550;DHT22;58101;48.658;2.328;2022-07-19T08:32:04;30.80;29.30
70550;DHT22;58101;48.658;2.328;2022-07-19T08:34:32;30.90;29.30
70550;DHT22;58101;48.658;2.328;2022-07-19T08:37:07;31.10;29.40
70550;DHT22;58101;48.658;2.328;2022-07-19T08:42:43;31.50;29.10
70550;DHT22;58101;48.658;2.328;2022-07-19T08:45:10;31.80;28.80
70550;DHT22;58101;48.658;2.328;2022-07-19T08:47:37;32.00;28.60
70550;DHT22;58101;48.658;2.328;2022-07-19T08:50:08;32.20;27.90
70550;DHT22;58101;48.658;2.328;2022-07-19T08:55:54;32.30;27.00
70550;DHT22;58101;48.658;2.328;2022-07-19T08:58:20;32.40;27.20
70550;DHT22;58101;48.658;2.328;2022-07-19T09:00:46;32.50;27.20
70550;DHT22;58101;48.658;2.328;2022-07-19T09:08:22;33.10;26.50
70550;DHT22;58101;48.658;2.328;2022-07-19T09:13:33;33.40;26.30
70550;DHT22;58101;48.658;2.328;2022-07-19T09:16:11;33.60;26.20
70550;DHT22;58101;48.658;2.328;2022-07-19T09:19:03;33.70;26.00
70550;DHT22;58101;48.658;2.328;2022-07-19T09:22:03;34.00;26.20
70550;DHT22;58101;48.658;2.328;2022-07-19T09:24:34;34.50;25.90
70550;DHT22;58101;48.658;2.328;2022-07-19T09:27:05;35.20;26.20
70550;DHT22;58101;48.658;2.328;2022-07-19T09:41:25;42.10;18.60
70550;DHT22;58101;48.658;2.328;2022-07-19T09:44:07;43.00;17.70
70550;DHT22;58101;48.658;2.328;2022-07-19T09:49:54;44.10;15.70
70550;DHT22;58101;48.658;2.328;2022-07-19T09:52:24;44.50;16.00
70550;DHT22;58101;48.658;2.328;2022-07-19T09:59:02;44.50;15.00
70550;DHT22;58101;48.658;2.328;2022-07-19T10:05:14;44.80;15.40
70550;DHT22;58101;48.658;2.328;2022-07-19T10:08:09;45.20;14.40
70550;DHT22;58101;48.658;2.328;2022-07-19T10:29:29;46.20;12.80
70550;DHT22;58101;48.658;2.328;2022-07-19T10:32:02;46.10;12.50
70550;DHT22;58101;48.658;2.328;2022-07-19T10:37:43;45.90;12.90
70550;DHT22;58101;48.658;2.328;2022-07-19T10:40:09;45.70;12.70
70550;DHT22;58101;48.658;2.328;2022-07-19T10:43:05;45.50;12.80
70550;DHT22;58101;48.658;2.328;2022-07-19T10:51:11;45.00;12.90
70550;DHT22;58101;48.658;2.328;2022-07-19T10:56:59;44.40;13.60
70550;DHT22;58101;48.658;2.328;2022-07-19T10:59:43;44.30;13.40
70550;DHT22;58101;48.658;2.328;2022-07-19T11:05:31;44.10;13.70
70550;DHT22;58101;48.658;2.328;2022-07-19T11:08:09;43.90;14.60
70550;DHT22;58101;48.658;2.328;2022-07-19T11:10:43;43.70;14.50
70550;DHT22;58101;48.658;2.328;2022-07-19T11:13:15;43.40;14.40
70550;DHT22;58101;48.658;2.328;2022-07-19T11:15:54;43.30;14.50
70550;DHT22;58101;48.658;2.328;2022-07-19T11:18:32;43.00;14.80
70550;DHT22;58101;48.658;2.328;2022-07-19T11:21:08;42.80;15.10
70550;DHT22;58101;48.658;2.328;2022-07-19T11:26:42;42.50;15.90
70550;DHT22;58101;48.658;2.328;2022-07-19T11:29:23;42.40;15.50
70550;DHT22;58101;48.658;2.328;2022-07-19T11:35:15;42.40;15.90
70550;DHT22;58101;48.658;2.328;2022-07-19T11:37:45;42.40;16.40
70550;DHT22;58101;48.658;2.328;2022-07-19T11:40:15;42.50;15.80
70550;DHT22;58101;48.658;2.328;2022-07-19T11:43:20;42.60;16.10
70550;DHT22;58101;48.658;2.328;2022-07-19T11:46:06;42.60;15.20
70550;DHT22;58101;48.658;2.328;2022-07-19T11:52:07;42.20;15.70
70550;DHT22;58101;48.658;2.328;2022-07-19T11:54:33;42.10;16.30
70550;DHT22;58101;48.658;2.328;2022-07-19T11:56:58;42.20;15.40
70550;DHT22;58101;48.658;2.328;2022-07-19T11:59:24;42.30;15.20
70550;DHT22;58101;48.658;2.328;2022-07-19T12:02:19;42.20;15.10
70550;DHT22;58101;48.658;2.328;2022-07-19T12:04:50;42.30;15.70
70550;DHT22;58101;48.658;2.328;2022-07-19T12:13:39;42.50;14.90
70550;DHT22;58101;48.658;2.328;2022-07-19T12:16:11;42.50;15.30
70550;DHT22;58101;48.658;2.328;2022-07-19T12:21:46;42.00;15.40
70550;DHT22;58101;48.658;2.328;2022-07-19T12:24:30;41.90;15.60
70550;DHT22;58101;48.658;2.328;2022-07-19T12:27:06;41.80;16.30
70550;DHT22;58101;48.658;2.328;2022-07-19T12:32:12;41.50;15.30
70550;DHT22;58101;48.658;2.328;2022-07-19T12:34:52;41.50;16.20
70550;DHT22;58101;48.658;2.328;2022-07-19T12:37:32;41.50;16.50
70550;DHT22;58101;48.658;2.328;2022-07-19T12:40:18;41.40;16.70
70550;DHT22;58101;48.658;2.328;2022-07-19T12:43:25;41.30;16.00
70550;DHT22;58101;48.658;2.328;2022-07-19T12:46:17;41.20;16.40
70550;DHT22;58101;48.658;2.328;2022-07-19T12:48:42;41.10;17.50
70550;DHT22;58101;48.658;2.328;2022-07-19T12:51:17;41.30;17.80
70550;DHT22;58101;48.658;2.328;2022-07-19T12:54:03;41.20;18.60
70550;DHT22;58101;48.658;2.328;2022-07-19T12:56:29;41.20;18.00
70550;DHT22;58101;48.658;2.328;2022-07-19T12:59:00;40.80;18.00
70550;DHT22;58101;48.658;2.328;2022-07-19T13:01:51;40.70;18.50
70550;DHT22;58101;48.658;2.328;2022-07-19T13:04:32;40.50;18.30
70550;DHT22;58101;48.658;2.328;2022-07-19T13:07:32;40.50;18.10
70550;DHT22;58101;48.658;2.328;2022-07-19T13:09:58;40.50;17.10
70550;DHT22;58101;48.658;2.328;2022-07-19T13:12:39;40.40;17.60
70550;DHT22;58101;48.658;2.328;2022-07-19T13:17:40;40.20;17.80
70550;DHT22;58101;48.658;2.328;2022-07-19T13:20:10;40.20;17.70
70550;DHT22;58101;48.658;2.328;2022-07-19T13:22:37;40.20;19.00
70550;DHT22;58101;48.658;2.328;2022-07-19T13:28:21;40.10;17.90
70550;DHT22;58101;48.658;2.328;2022-07-19T13:30:50;40.00;16.90
70550;DHT22;58101;48.658;2.328;2022-07-19T13:33:16;39.90;17.00
70550;DHT22;58101;48.658;2.328;2022-07-19T13:35:51;39.90;17.40
70550;DHT22;58101;48.658;2.328;2022-07-19T13:38:17;39.90;16.80
70550;DHT22;58101;48.658;2.328;2022-07-19T13:40:43;39.90;17.40
70550;DHT22;58101;48.658;2.328;2022-07-19T13:43:21;39.90;18.40
70550;DHT22;58101;48.658;2.328;2022-07-19T13:46:05;39.90;16.80
70550;DHT22;58101;48.658;2.328;2022-07-19T13:48:46;39.80;17.20
70550;DHT22;58101;48.658;2.328;2022-07-19T13:51:18;39.80;17.60
70550;DHT22;58101;48.658;2.328;2022-07-19T13:57:13;39.70;18.20
70550;DHT22;58101;48.658;2.328;2022-07-19T13:59:57;39.80;17.10
70550;DHT22;58101;48.658;2.328;2022-07-19T14:02:49;39.70;16.80
70550;DHT22;58101;48.658;2.328;2022-07-19T14:08:54;39.50;17.10
70550;DHT22;58101;48.658;2.328;2022-07-19T14:11:23;39.50;18.10
70550;DHT22;58101;48.658;2.328;2022-07-19T14:16:32;39.50;18.50
70550;DHT22;58101;48.658;2.328;2022-07-19T14:18:57;39.50;18.10
70550;DHT22;58101;48.658;2.328;2022-07-19T14:21:29;39.50;18.00
70550;DHT22;58101;48.658;2.328;2022-07-19T14:24:05;39.50;17.60
70550;DHT22;58101;48.658;2.328;2022-07-19T14:26:37;39.50;18.30
70550;DHT22;58101;48.658;2.328;2022-07-19T14:29:05;39.50;18.00
70550;DHT22;58101;48.658;2.328;2022-07-19T14:31:31;39.50;18.40
70550;DHT22;58101;48.658;2.328;2022-07-19T14:37:16;39.50;18.60
70550;DHT22;58101;48.658;2.328;2022-07-19T14:39:42;39.30;18.60
70550;DHT22;58101;48.658;2.328;2022-07-19T14:42:08;39.20;19.10
70550;DHT22;58101;48.658;2.328;2022-07-19T14:51:29;39.10;19.00
70550;DHT22;58101;48.658;2.328;2022-07-19T14:54:13;39.00;19.20
70550;DHT22;58101;48.658;2.328;2022-07-19T14:56:44;38.90;19.20
70550;DHT22;58101;48.658;2.328;2022-07-19T14:59:12;38.90;19.60
70550;DHT22;58101;48.658;2.328;2022-07-19T15:05:06;39.00;19.50
70550;DHT22;58101;48.658;2.328;2022-07-19T15:07:53;39.00;19.10
70550;DHT22;58101;48.658;2.328;2022-07-19T15:10:19;39.00;19.00
70550;DHT22;58101;48.658;2.328;2022-07-19T15:12:45;39.00;19.10
70550;DHT22;58101;48.658;2.328;2022-07-19T15:15:10;38.90;19.10
70550;DHT22;58101;48.658;2.328;2022-07-19T15:17:37;38.90;19.40
70550;DHT22;58101;48.658;2.328;2022-07-19T15:20:03;38.90;19.30
70550;DHT22;58101;48.658;2.328;2022-07-19T15:22:44;38.90;19.00
70550;DHT22;58101;48.658;2.328;2022-07-19T15:25:22;38.90;19.10
70550;DHT22;58101;48.658;2.328;2022-07-19T15:30:46;38.80;19.00
70550;DHT22;58101;48.658;2.328;2022-07-19T15:33:12;38.70;18.70
70550;DHT22;58101;48.658;2.328;2022-07-19T15:35:44;38.60;18.60
70550;DHT22;58101;48.658;2.328;2022-07-19T15:38:24;38.50;18.70
70550;DHT22;58101;48.658;2.328;2022-07-19T15:41:24;38.40;18.60
70550;DHT22;58101;48.658;2.328;2022-07-19T15:43:52;38.50;18.80
70550;DHT22;58101;48.658;2.328;2022-07-19T15:46:38;38.30;18.30
70550;DHT22;58101;48.658;2.328;2022-07-19T15:49:04;38.30;18.50
70550;DHT22;58101;48.658;2.328;2022-07-19T15:51:31;38.10;18.90
70550;DHT22;58101;48.658;2.328;2022-07-19T15:54:15;38.10;19.20
70550;DHT22;58101;48.658;2.328;2022-07-19T15:56:41;38.00;18.90
70550;DHT22;58101;48.658;2.328;2022-07-19T15:59:15;38.00;18.90
70550;DHT22;58101;48.658;2.328;2022-07-19T16:01:41;37.90;19.10
70550;DHT22;58101;48.658;2.328;2022-07-19T16:07:29;37.80;19.30
70550;DHT22;58101;48.658;2.328;2022-07-19T16:09:55;37.90;19.70
70550;DHT22;58101;48.658;2.328;2022-07-19T16:12:33;37.80;19.90
70550;DHT22;58101;48.658;2.328;2022-07-19T16:17:47;37.80;20.70
70550;DHT22;58101;48.658;2.328;2022-07-19T16:20:14;37.70;19.70
70550;DHT22;58101;48.658;2.328;2022-07-19T16:22:40;37.70;19.80
70550;DHT22;58101;48.658;2.328;2022-07-19T16:25:09;37.60;19.80
70550;DHT22;58101;48.658;2.328;2022-07-19T16:30:57;37.50;20.10
70550;DHT22;58101;48.658;2.328;2022-07-19T16:33:28;37.40;20.30
70550;DHT22;58101;48.658;2.328;2022-07-19T16:39:16;37.30;21.20
70550;DHT22;58101;48.658;2.328;2022-07-19T16:41:41;37.20;22.10
70550;DHT22;58101;48.658;2.328;2022-07-19T16:44:33;37.00;22.40
70550;DHT22;58101;48.658;2.328;2022-07-19T16:50:27;36.70;23.30
70550;DHT22;58101;48.658;2.328;2022-07-19T16:53:11;36.60;23.80
70550;DHT22;58101;48.658;2.328;2022-07-19T16:55:43;36.50;24.40
70550;DHT22;58101;48.658;2.328;2022-07-19T16:58:12;36.30;25.30
70550;DHT22;58101;48.658;2.328;2022-07-19T17:00:37;36.20;26.10
70550;DHT22;58101;48.658;2.328;2022-07-19T17:05:39;35.90;27.70
70550;DHT22;58101;48.658;2.328;2022-07-19T17:08:26;35.90;28.20
70550;DHT22;58101;48.658;2.328;2022-07-19T17:10:52;35.70;28.40
70550;DHT22;58101;48.658;2.328;2022-07-19T17:13:45;35.50;28.60
70550;DHT22;58101;48.658;2.328;2022-07-19T17:16:11;35.50;29.00
70550;DHT22;58101;48.658;2.328;2022-07-19T17:18:37;35.30;30.00
70550;DHT22;58101;48.658;2.328;2022-07-19T17:24:16;35.10;31.70
70550;DHT22;58101;48.658;2.328;2022-07-19T17:26:41;34.90;32.10
70550;DHT22;58101;48.658;2.328;2022-07-19T17:29:11;34.70;32.70
70550;DHT22;58101;48.658;2.328;2022-07-19T17:34:58;34.60;33.50
70550;DHT22;58101;48.658;2.328;2022-07-19T17:37:49;34.50;33.80
70550;DHT22;58101;48.658;2.328;2022-07-19T17:40:16;34.40;34.70
70550;DHT22;58101;48.658;2.328;2022-07-19T17:42:42;34.20;36.10
70550;DHT22;58101;48.658;2.328;2022-07-19T17:51:31;33.60;38.60
70550;DHT22;58101;48.658;2.328;2022-07-19T17:54:00;33.40;39.20
70550;DHT22;58101;48.658;2.328;2022-07-19T17:56:26;33.30;39.80
70550;DHT22;58101;48.658;2.328;2022-07-19T18:04:39;32.70;41.30
70550;DHT22;58101;48.658;2.328;2022-07-19T18:14:08;32.30;42.80
70550;DHT22;58101;48.658;2.328;2022-07-19T18:24:59;31.90;43.20
70550;DHT22;58101;48.658;2.328;2022-07-19T18:27:24;31.90;43.20
70550;DHT22;58101;48.658;2.328;2022-07-19T18:29:51;31.90;43.40
70550;DHT22;58101;48.658;2.328;2022-07-19T18:32:20;31.80;43.40
70550;DHT22;58101;48.658;2.328;2022-07-19T18:34:52;31.80;43.40
70550;DHT22;58101;48.658;2.328;2022-07-19T18:37:17;31.70;43.50
70550;DHT22;58101;48.658;2.328;2022-07-19T18:39:43;31.60;44.00
70550;DHT22;58101;48.658;2.328;2022-07-19T18:42:18;31.50;43.90
70550;DHT22;58101;48.658;2.328;2022-07-19T18:44:44;31.50;44.10
70550;DHT22;58101;48.658;2.328;2022-07-19T18:47:19;31.50;44.20
70550;DHT22;58101;48.658;2.328;2022-07-19T18:49:48;31.40;44.10
70550;DHT22;58101;48.658;2.328;2022-07-19T18:52:22;31.40;44.70
70550;DHT22;58101;48.658;2.328;2022-07-19T18:55:02;31.30;44.70
70550;DHT22;58101;48.658;2.328;2022-07-19T18:57:56;31.20;44.90
70550;DHT22;58101;48.658;2.328;2022-07-19T19:00:36;31.20;45.10
70550;DHT22;58101;48.658;2.328;2022-07-19T19:03:02;31.10;45.60
70550;DHT22;58101;48.658;2.328;2022-07-19T19:05:33;31.00;46.10
70550;DHT22;58101;48.658;2.328;2022-07-19T19:07:59;31.00;46.20
70550;DHT22;58101;48.658;2.328;2022-07-19T19:10:25;30.80;46.70
70550;DHT22;58101;48.658;2.328;2022-07-19T19:12:51;30.70;47.30
70550;DHT22;58101;48.658;2.328;2022-07-19T19:15:17;30.60;48.90
70550;DHT22;58101;48.658;2.328;2022-07-19T19:17:44;30.60;48.20
70550;DHT22;58101;48.658;2.328;2022-07-19T19:20:35;30.50;49.40
70550;DHT22;58101;48.658;2.328;2022-07-19T19:23:01;30.40;48.70
70550;DHT22;58101;48.658;2.328;2022-07-19T19:25:27;30.40;49.00
70550;DHT22;58101;48.658;2.328;2022-07-19T19:27:53;30.40;48.80
70550;DHT22;58101;48.658;2.328;2022-07-19T19:30:24;30.40;49.30
70550;DHT22;58101;48.658;2.328;2022-07-19T19:32:56;30.30;49.20
70550;DHT22;58101;48.658;2.328;2022-07-19T19:35:21;30.10;49.30
70550;DHT22;58101;48.658;2.328;2022-07-19T19:38:01;30.10;49.60
70550;DHT22;58101;48.658;2.328;2022-07-19T19:43:43;30.00;49.60
70550;DHT22;58101;48.658;2.328;2022-07-19T19:46:15;29.80;48.90
70550;DHT22;58101;48.658;2.328;2022-07-19T19:48:44;29.80;48.00
70550;DHT22;58101;48.658;2.328;2022-07-19T19:51:16;29.80;46.70
70550;DHT22;58101;48.658;2.328;2022-07-19T19:53:42;29.80;46.20
70550;DHT22;58101;48.658;2.328;2022-07-19T19:56:12;29.60;45.60